sensor_id;sensor_type;location;lat;lon;timestamp;pressure;altitude;pressure_sealevel;temperature
16956;BMP180;8594;52.052;8.354;2023-08-07T00:01:25;99938.00;;;18.20
16956;BMP180;8594;52.052;8.354;2023-08-07T00:03:52;99940.00;;;18.10
16956;BMP180;8594;52.052;8.354;2023-08-07T00:06:18;99933.00;;;18.60
16956;BMP180;8594;52.052;8.354;2023-08-07T00:08:45;99930.00;;;18.00
16956;BMP180;8594;52.052;8.354;2023-08-07T00:11:12;99945.00;;;17.90
16956;BMP180;8594;52.052;8.354;2023-08-07T00:13:40;99941.00;;;18.50
16956;BMP180;8594;52.052;8.354;2023-08-07T00:16:07;99939.00;;;18.50
16956;BMP180;8594;52.052;8.354;2023-08-07T00:18:36;99942.00;;;18.20
16956;BMP180;8594;52.052;8.354;2023-08-07T00:21:02;99942.00;;;18.40
16956;BMP180;8594;52.052;8.354;2023-08-07T00:23:29;99940.00;;;18.30
16956;BMP180;8594;52.052;8.354;2023-08-07T00:25:56;99941.00;;;18.00
16956;BMP180;8594;52.052;8.354;2023-08-07T00:28:23;99938.00;;;18.30
16956;BMP180;8594;52.052;8.354;2023-08-07T00:30:51;99938.00;;;18.20
16956;BMP180;8594;52.052;8.354;2023-08-07T00:33:18;99942.00;;;18.10
16956;BMP180;8594;52.052;8.354;2023-08-07T00:35:45;99942.00;;;18.20
16956;BMP180;8594;52.052;8.354;2023-08-07T00:38:12;99938.00;;;18.20
16956;BMP180;8594;52.052;8.354;2023-08-07T00:40:39;99946.00;;;18.10
16956;BMP180;8594;52.052;8.354;2023-08-07T00:43:07;99943.00;;;18.20
16956;BMP180;8594;52.052;8.354;2023-08-07T00:45:38;99936.00;;;18.20
16956;BMP180;8594;52.052;8.354;2023-08-07T00:48:10;99933.00;;;18.20
16956;BMP180;8594;52.052;8.354;2023-08-07T00:50:39;99940.00;;;18.10
16956;BMP180;8594;52.052;8.354;2023-08-07T00:53:07;99933.00;;;18.20
16956;BMP180;8594;52.052;8.354;2023-08-07T00:55:34;99938.00;;;18.40
16956;BMP180;8594;52.052;8.354;2023-08-07T00:58:01;99939.00;;;18.30
16956;BMP180;8594;52.052;8.354;2023-08-07T01:00:29;99948.00;;;18.50
16956;BMP180;8594;52.052;8.354;2023-08-07T01:02:57;99932.00;;;18.20
16956;BMP180;8594;52.052;8.354;2023-08-07T01:05:25;99938.00;;;18.10
16956;BMP180;8594;52.052;8.354;2023-08-07T01:07:53;99939.00;;;18.30
16956;BMP180;8594;52.052;8.354;2023-08-07T01:10:40;99942.00;;;18.20
16956;BMP180;8594;52.052;8.354;2023-08-07T01:13:18;99940.00;;;17.80
16956;BMP180;8594;52.052;8.354;2023-08-07T01:15:50;99937.00;;;18.10
16956;BMP180;8594;52.052;8.354;2023-08-07T01:18:20;99945.00;;;18.10
16956;BMP180;8594;52.052;8.354;2023-08-07T01:20:49;99937.00;;;18.10
16956;BMP180;8594;52.052;8.354;2023-08-07T01:23:17;99936.00;;;18.20
16956;BMP180;8594;52.052;8.354;2023-08-07T01:25:44;99939.00;;;18.50
16956;BMP180;8594;52.052;8.354;2023-08-07T01:28:19;99941.00;;;18.20
16956;BMP180;8594;52.052;8.354;2023-08-07T01:30:55;99928.00;;;18.30
16956;BMP180;8594;52.052;8.354;2023-08-07T01:33:31;99936.00;;;18.30
16956;BMP180;8594;52.052;8.354;2023-08-07T01:36:05;99943.00;;;18.20
16956;BMP180;8594;52.052;8.354;2023-08-07T01:38:36;99938.00;;;18.10
16956;BMP180;8594;52.052;8.354;2023-08-07T01:41:04;99936.00;;;18.10
16956;BMP180;8594;52.052;8.354;2023-08-07T01:43:32;99936.00;;;18.10
16956;BMP180;8594;52.052;8.354;2023-08-07T01:45:59;99932.00;;;18.40
16956;BMP180;8594;52.052;8.354;2023-08-07T01:48:26;99931.00;;;18.20
16956;BMP180;8594;52.052;8.354;2023-08-07T01:50:53;99932.00;;;18.30
16956;BMP180;8594;52.052;8.354;2023-08-07T01:53:21;99936.00;;;18.40
16956;BMP180;8594;52.052;8.354;2023-08-07T01:55:49;99940.00;;;18.30
16956;BMP180;8594;52.052;8.354;2023-08-07T01:58:16;99936.00;;;18.30
16956;BMP180;8594;52.052;8.354;2023-08-07T02:00:42;99938.00;;;18.60
16956;BMP180;8594;52.052;8.354;2023-08-07T02:03:09;99939.00;;;18.30
16956;BMP180;8594;52.052;8.354;2023-08-07T02:05:36;99940.00;;;18.30
16956;BMP180;8594;52.052;8.354;2023-08-07T02:08:03;99934.00;;;18.00
16956;BMP180;8594;52.052;8.354;2023-08-07T02:10:30;99942.00;;;17.90
16956;BMP180;8594;52.052;8.354;2023-08-07T02:12:59;99948.00;;;17.80
16956;BMP180;8594;52.052;8.354;2023-08-07T02:15:25;99937.00;;;17.70
16956;BMP180;8594;52.052;8.354;2023-08-07T02:17:52;99944.00;;;17.80
16956;BMP180;8594;52.052;8.354;2023-08-07T02:20:19;99941.00;;;18.00
16956;BMP180;8594;52.052;8.354;2023-08-07T02:22:46;99950.00;;;18.10
16956;BMP180;8594;52.052;8.354;2023-08-07T02:25:13;99935.00;;;18.00
16956;BMP180;8594;52.052;8.354;2023-08-07T02:27:40;99935.00;;;17.90
16956;BMP180;8594;52.052;8.354;2023-08-07T02:30:09;99933.00;;;18.20
16956;BMP180;8594;52.052;8.354;2023-08-07T02:32:35;99940.00;;;18.20
16956;BMP180;8594;52.052;8.354;2023-08-07T02:35:03;99931.00;;;18.00
16956;BMP180;8594;52.052;8.354;2023-08-07T02:37:30;99937.00;;;18.30
16956;BMP180;8594;52.052;8.354;2023-08-07T02:39:57;99937.00;;;18.40
16956;BMP180;8594;52.052;8.354;2023-08-07T02:42:24;99934.00;;;18.40
16956;BMP180;8594;52.052;8.354;2023-08-07T02:44:51;99933.00;;;18.20
16956;BMP180;8594;52.052;8.354;2023-08-07T02:47:19;99941.00;;;18.30
16956;BMP180;8594;52.052;8.354;2023-08-07T02:49:46;99940.00;;;18.30
16956;BMP180;8594;52.052;8.354;2023-08-07T02:52:12;99941.00;;;18.40
16956;BMP180;8594;52.052;8.354;2023-08-07T02:54:39;99930.00;;;18.30
16956;BMP180;8594;52.052;8.354;2023-08-07T02:57:06;99936.00;;;18.30
16956;BMP180;8594;52.052;8.354;2023-08-07T02:59:33;99935.00;;;18.20
16956;BMP180;8594;52.052;8.354;2023-08-07T03:02:00;99928.00;;;18.40
16956;BMP180;8594;52.052;8.354;2023-08-07T03:04:28;99934.00;;;18.40
16956;BMP180;8594;52.052;8.354;2023-08-07T03:06:55;99936.00;;;18.20
16956;BMP180;8594;52.052;8.354;2023-08-07T03:09:21;99926.00;;;18.40
16956;BMP180;8594;52.052;8.354;2023-08-07T03:11:48;99928.00;;;18.30
16956;BMP180;8594;52.052;8.354;2023-08-07T03:14:15;99936.00;;;17.80
16956;BMP180;8594;52.052;8.354;2023-08-07T03:16:42;99933.00;;;18.00
16956;BMP180;8594;52.052;8.354;2023-08-07T03:19:09;99936.00;;;18.10
16956;BMP180;8594;52.052;8.354;2023-08-07T03:21:37;99926.00;;;18.30
16956;BMP180;8594;52.052;8.354;2023-08-07T03:24:05;99936.00;;;18.30
16956;BMP180;8594;52.052;8.354;2023-08-07T03:26:31;99937.00;;;18.40
16956;BMP180;8594;52.052;8.354;2023-08-07T03:28:58;99929.00;;;18.30
16956;BMP180;8594;52.052;8.354;2023-08-07T03:31:25;99930.00;;;18.00
16956;BMP180;8594;52.052;8.354;2023-08-07T03:33:52;99946.00;;;18.10
16956;BMP180;8594;52.052;8.354;2023-08-07T03:36:19;99935.00;;;18.20
16956;BMP180;8594;52.052;8.354;2023-08-07T03:38:47;99938.00;;;18.30
16956;BMP180;8594;52.052;8.354;2023-08-07T03:41:14;99939.00;;;17.90
16956;BMP180;8594;52.052;8.354;2023-08-07T03:43:41;99943.00;;;18.10
16956;BMP180;8594;52.052;8.354;2023-08-07T03:46:07;99939.00;;;18.10
16956;BMP180;8594;52.052;8.354;2023-08-07T03:48:34;99940.00;;;18.00
16956;BMP180;8594;52.052;8.354;2023-08-07T03:51:05;99937.00;;;18.30
16956;BMP180;8594;52.052;8.354;2023-08-07T03:53:33;99934.00;;;18.30
16956;BMP180;8594;52.052;8.354;2023-08-07T03:56:02;99941.00;;;18.50
16956;BMP180;8594;52.052;8.354;2023-08-07T03:58:29;99932.00;;;18.40
16956;BMP180;8594;52.052;8.354;2023-08-07T04:00:56;99934.00;;;18.40
16956;BMP180;8594;52.052;8.354;2023-08-07T04:03:23;99938.00;;;18.70
16956;BMP180;8594;52.052;8.354;2023-08-07T04:05:52;99935.00;;;18.60
16956;BMP180;8594;52.052;8.354;2023-08-07T04:08:20;99943.00;;;18.10
16956;BMP180;8594;52.052;8.354;2023-08-07T04:10:58;99938.00;;;18.10
16956;BMP180;8594;52.052;8.354;2023-08-07T04:13:27;99944.00;;;18.30
16956;BMP180;8594;52.052;8.354;2023-08-07T04:15:54;99942.00;;;18.20
16956;BMP180;8594;52.052;8.354;2023-08-07T04:18:21;99945.00;;;18.40
16956;BMP180;8594;52.052;8.354;2023-08-07T04:20:49;99951.00;;;18.40
16956;BMP180;8594;52.052;8.354;2023-08-07T04:23:18;99949.00;;;18.10
16956;BMP180;8594;52.052;8.354;2023-08-07T04:25:45;99946.00;;;17.90
16956;BMP180;8594;52.052;8.354;2023-08-07T04:28:12;99952.00;;;17.90
16956;BMP180;8594;52.052;8.354;2023-08-07T04:30:41;99950.00;;;17.90
16956;BMP180;8594;52.052;8.354;2023-08-07T04:33:08;99956.00;;;18.00
16956;BMP180;8594;52.052;8.354;2023-08-07T04:35:35;99965.00;;;18.00
16956;BMP180;8594;52.052;8.354;2023-08-07T04:38:02;99964.00;;;17.90
16956;BMP180;8594;52.052;8.354;2023-08-07T04:40:29;99964.00;;;17.70
16956;BMP180;8594;52.052;8.354;2023-08-07T04:42:56;99956.00;;;18.00
16956;BMP180;8594;52.052;8.354;2023-08-07T04:45:23;99955.00;;;18.00
16956;BMP180;8594;52.052;8.354;2023-08-07T04:47:51;99957.00;;;18.20
16956;BMP180;8594;52.052;8.354;2023-08-07T04:50:18;99954.00;;;17.90
16956;BMP180;8594;52.052;8.354;2023-08-07T04:52:45;99968.00;;;18.00
16956;BMP180;8594;52.052;8.354;2023-08-07T04:55:12;99971.00;;;17.90
16956;BMP180;8594;52.052;8.354;2023-08-07T04:57:39;99975.00;;;18.10
16956;BMP180;8594;52.052;8.354;2023-08-07T05:00:07;99978.00;;;18.10
16956;BMP180;8594;52.052;8.354;2023-08-07T05:02:35;99978.00;;;17.70
16956;BMP180;8594;52.052;8.354;2023-08-07T05:05:04;99979.00;;;17.60
16956;BMP180;8594;52.052;8.354;2023-08-07T05:07:33;99987.00;;;17.80
16956;BMP180;8594;52.052;8.354;2023-08-07T05:10:01;99978.00;;;17.90
16956;BMP180;8594;52.052;8.354;2023-08-07T05:12:28;99980.00;;;18.00
16956;BMP180;8594;52.052;8.354;2023-08-07T05:14:55;99984.00;;;17.60
16956;BMP180;8594;52.052;8.354;2023-08-07T05:17:22;99981.00;;;18.00
16956;BMP180;8594;52.052;8.354;2023-08-07T05:19:49;99989.00;;;17.90
16956;BMP180;8594;52.052;8.354;2023-08-07T05:22:17;99987.00;;;17.80
16956;BMP180;8594;52.052;8.354;2023-08-07T05:24:44;99982.00;;;18.00
16956;BMP180;8594;52.052;8.354;2023-08-07T05:27:11;99990.00;;;18.20
16956;BMP180;8594;52.052;8.354;2023-08-07T05:29:38;99996.00;;;18.10
16956;BMP180;8594;52.052;8.354;2023-08-07T05:32:10;99994.00;;;18.00
16956;BMP180;8594;52.052;8.354;2023-08-07T05:34:36;99992.00;;;17.90
16956;BMP180;8594;52.052;8.354;2023-08-07T05:37:04;99997.00;;;18.00
16956;BMP180;8594;52.052;8.354;2023-08-07T05:39:33;99997.00;;;17.80
16956;BMP180;8594;52.052;8.354;2023-08-07T05:42:00;99995.00;;;18.10
16956;BMP180;8594;52.052;8.354;2023-08-07T05:44:27;99995.00;;;18.20
16956;BMP180;8594;52.052;8.354;2023-08-07T05:46:54;99999.00;;;18.30
16956;BMP180;8594;52.052;8.354;2023-08-07T05:49:21;100009.00;;;18.20
16956;BMP180;8594;52.052;8.354;2023-08-07T05:51:48;100009.00;;;18.30
16956;BMP180;8594;52.052;8.354;2023-08-07T05:54:15;100010.00;;;18.30
16956;BMP180;8594;52.052;8.354;2023-08-07T05:56:43;100013.00;;;18.20
16956;BMP180;8594;52.052;8.354;2023-08-07T05:59:10;100016.00;;;18.10
16956;BMP180;8594;52.052;8.354;2023-08-07T06:01:37;100016.00;;;18.20
16956;BMP180;8594;52.052;8.354;2023-08-07T06:04:04;100015.00;;;18.10
16956;BMP180;8594;52.052;8.354;2023-08-07T06:06:31;100018.00;;;18.20
16956;BMP180;8594;52.052;8.354;2023-08-07T06:09:00;100013.00;;;18.20
16956;BMP180;8594;52.052;8.354;2023-08-07T06:11:28;100012.00;;;18.20
16956;BMP180;8594;52.052;8.354;2023-08-07T06:13:56;100022.00;;;18.00
16956;BMP180;8594;52.052;8.354;2023-08-07T06:16:23;100021.00;;;18.00
16956;BMP180;8594;52.052;8.354;2023-08-07T06:18:49;100025.00;;;18.20
16956;BMP180;8594;52.052;8.354;2023-08-07T06:21:16;100024.00;;;18.30
16956;BMP180;8594;52.052;8.354;2023-08-07T06:23:43;100025.00;;;18.20
16956;BMP180;8594;52.052;8.354;2023-08-07T06:26:10;100036.00;;;18.20
16956;BMP180;8594;52.052;8.354;2023-08-07T06:28:37;100034.00;;;18.50
16956;BMP180;8594;52.052;8.354;2023-08-07T06:31:08;100030.00;;;18.40
16956;BMP180;8594;52.052;8.354;2023-08-07T06:33:36;100045.00;;;18.50
16956;BMP180;8594;52.052;8.354;2023-08-07T06:36:04;100032.00;;;18.30
16956;BMP180;8594;52.052;8.354;2023-08-07T06:38:31;100038.00;;;17.90
16956;BMP180;8594;52.052;8.354;2023-08-07T06:40:58;100033.00;;;18.10
16956;BMP180;8594;52.052;8.354;2023-08-07T06:43:25;100026.00;;;18.00
16956;BMP180;8594;52.052;8.354;2023-08-07T06:45:54;100038.00;;;18.30
16956;BMP180;8594;52.052;8.354;2023-08-07T06:48:23;100036.00;;;18.00
16956;BMP180;8594;52.052;8.354;2023-08-07T06:50:50;100046.00;;;18.00
16956;BMP180;8594;52.052;8.354;2023-08-07T06:53:18;100041.00;;;18.40
16956;BMP180;8594;52.052;8.354;2023-08-07T06:55:46;100051.00;;;18.30
16956;BMP180;8594;52.052;8.354;2023-08-07T06:58:12;100047.00;;;18.20
16956;BMP180;8594;52.052;8.354;2023-08-07T07:00:39;100043.00;;;18.20
16956;BMP180;8594;52.052;8.354;2023-08-07T07:03:06;100048.00;;;18.60
16956;BMP180;8594;52.052;8.354;2023-08-07T07:05:37;100051.00;;;18.30
16956;BMP180;8594;52.052;8.354;2023-08-07T07:08:04;100054.00;;;18.50
16956;BMP180;8594;52.052;8.354;2023-08-07T07:10:31;100049.00;;;18.50
16956;BMP180;8594;52.052;8.354;2023-08-07T07:12:58;100047.00;;;18.10
16956;BMP180;8594;52.052;8.354;2023-08-07T07:15:26;100056.00;;;18.50
16956;BMP180;8594;52.052;8.354;2023-08-07T07:17:52;100060.00;;;18.60
16956;BMP180;8594;52.052;8.354;2023-08-07T07:20:19;100062.00;;;18.60
16956;BMP180;8594;52.052;8.354;2023-08-07T07:22:49;100056.00;;;18.60
16956;BMP180;8594;52.052;8.354;2023-08-07T07:25:16;100054.00;;;18.60
16956;BMP180;8594;52.052;8.354;2023-08-07T07:27:43;100058.00;;;19.00
16956;BMP180;8594;52.052;8.354;2023-08-07T07:30:11;100056.00;;;18.60
16956;BMP180;8594;52.052;8.354;2023-08-07T07:32:37;100060.00;;;18.60
16956;BMP180;8594;52.052;8.354;2023-08-07T07:35:05;100061.00;;;18.90
16956;BMP180;8594;52.052;8.354;2023-08-07T07:37:33;100067.00;;;18.80
16956;BMP180;8594;52.052;8.354;2023-08-07T07:40:01;100068.00;;;18.60
16956;BMP180;8594;52.052;8.354;2023-08-07T07:42:28;100067.00;;;18.70
16956;BMP180;8594;52.052;8.354;2023-08-07T07:44:55;100065.00;;;18.30
16956;BMP180;8594;52.052;8.354;2023-08-07T07:47:22;100069.00;;;18.60
16956;BMP180;8594;52.052;8.354;2023-08-07T07:50:04;100076.00;;;18.30
16956;BMP180;8594;52.052;8.354;2023-08-07T07:52:31;100096.00;;;18.50
16956;BMP180;8594;52.052;8.354;2023-08-07T07:54:58;100091.00;;;18.50
16956;BMP180;8594;52.052;8.354;2023-08-07T07:57:26;100089.00;;;18.70
16956;BMP180;8594;52.052;8.354;2023-08-07T07:59:53;100093.00;;;18.70
16956;BMP180;8594;52.052;8.354;2023-08-07T08:02:21;100084.00;;;18.60
16956;BMP180;8594;52.052;8.354;2023-08-07T08:04:50;100093.00;;;19.00
16956;BMP180;8594;52.052;8.354;2023-08-07T08:07:17;100097.00;;;18.90
16956;BMP180;8594;52.052;8.354;2023-08-07T08:09:44;100093.00;;;19.40
16956;BMP180;8594;52.052;8.354;2023-08-07T08:12:11;100103.00;;;19.40
16956;BMP180;8594;52.052;8.354;2023-08-07T08:14:39;100098.00;;;19.50
16956;BMP180;8594;52.052;8.354;2023-08-07T08:17:06;100097.00;;;19.40
16956;BMP180;8594;52.052;8.354;2023-08-07T08:19:33;100103.00;;;19.40
16956;BMP180;8594;52.052;8.354;2023-08-07T08:22:00;100102.00;;;19.40
16956;BMP180;8594;52.052;8.354;2023-08-07T08:24:27;100098.00;;;19.50
16956;BMP180;8594;52.052;8.354;2023-08-07T08:26:54;100105.00;;;19.60
16956;BMP180;8594;52.052;8.354;2023-08-07T08:29:21;100115.00;;;19.60
16956;BMP180;8594;52.052;8.354;2023-08-07T08:31:49;100124.00;;;19.40
16956;BMP180;8594;52.052;8.354;2023-08-07T08:34:18;100119.00;;;19.50
16956;BMP180;8594;52.052;8.354;2023-08-07T08:36:45;100140.00;;;19.40
16956;BMP180;8594;52.052;8.354;2023-08-07T08:39:12;100138.00;;;19.30
16956;BMP180;8594;52.052;8.354;2023-08-07T08:41:39;100131.00;;;19.20
16956;BMP180;8594;52.052;8.354;2023-08-07T08:44:12;100141.00;;;18.90
16956;BMP180;8594;52.052;8.354;2023-08-07T08:46:42;100132.00;;;19.40
16956;BMP180;8594;52.052;8.354;2023-08-07T08:49:10;100142.00;;;19.60
16956;BMP180;8594;52.052;8.354;2023-08-07T08:51:38;100142.00;;;20.00
16956;BMP180;8594;52.052;8.354;2023-08-07T08:54:06;100143.00;;;20.20
16956;BMP180;8594;52.052;8.354;2023-08-07T08:56:33;100144.00;;;20.70
16956;BMP180;8594;52.052;8.354;2023-08-07T08:59:01;100140.00;;;20.20
16956;BMP180;8594;52.052;8.354;2023-08-07T09:01:30;100137.00;;;20.90
16956;BMP180;8594;52.052;8.354;2023-08-07T09:03:58;100133.00;;;21.20
16956;BMP180;8594;52.052;8.354;2023-08-07T09:06:30;100140.00;;;21.50
16956;BMP180;8594;52.052;8.354;2023-08-07T09:08:59;100156.00;;;21.40
16956;BMP180;8594;52.052;8.354;2023-08-07T09:11:29;100144.00;;;21.30
16956;BMP180;8594;52.052;8.354;2023-08-07T09:13:57;100151.00;;;21.00
16956;BMP180;8594;52.052;8.354;2023-08-07T09:16:26;100165.00;;;20.80
16956;BMP180;8594;52.052;8.354;2023-08-07T09:18:54;100161.00;;;20.60
16956;BMP180;8594;52.052;8.354;2023-08-07T09:21:21;100168.00;;;20.70
16956;BMP180;8594;52.052;8.354;2023-08-07T09:23:49;100173.00;;;21.20
16956;BMP180;8594;52.052;8.354;2023-08-07T09:26:22;100163.00;;;20.60
16956;BMP180;8594;52.052;8.354;2023-08-07T09:28:51;100161.00;;;20.30
16956;BMP180;8594;52.052;8.354;2023-08-07T09:31:19;100168.00;;;20.30
16956;BMP180;8594;52.052;8.354;2023-08-07T09:33:48;100173.00;;;20.30
16956;BMP180;8594;52.052;8.354;2023-08-07T09:36:15;100182.00;;;20.10
16956;BMP180;8594;52.052;8.354;2023-08-07T09:38:42;100183.00;;;19.90
16956;BMP180;8594;52.052;8.354;2023-08-07T09:41:11;100181.00;;;20.30
16956;BMP180;8594;52.052;8.354;2023-08-07T09:43:38;100195.00;;;20.40
16956;BMP180;8594;52.052;8.354;2023-08-07T09:46:05;100196.00;;;20.60
16956;BMP180;8594;52.052;8.354;2023-08-07T09:48:39;100203.00;;;21.20
16956;BMP180;8594;52.052;8.354;2023-08-07T09:51:07;100199.00;;;21.20
16956;BMP180;8594;52.052;8.354;2023-08-07T09:53:34;100200.00;;;21.10
16956;BMP180;8594;52.052;8.354;2023-08-07T09:56:02;100208.00;;;21.10
16956;BMP180;8594;52.052;8.354;2023-08-07T09:58:31;100222.00;;;20.50
16956;BMP180;8594;52.052;8.354;2023-08-07T10:01:00;100215.00;;;20.30
16956;BMP180;8594;52.052;8.354;2023-08-07T10:03:27;100213.00;;;20.80
16956;BMP180;8594;52.052;8.354;2023-08-07T10:05:55;100213.00;;;20.60
16956;BMP180;8594;52.052;8.354;2023-08-07T10:08:22;100218.00;;;20.70
16956;BMP180;8594;52.052;8.354;2023-08-07T10:10:50;100223.00;;;20.50
16956;BMP180;8594;52.052;8.354;2023-08-07T10:13:18;100232.00;;;20.60
16956;BMP180;8594;52.052;8.354;2023-08-07T10:15:48;100237.00;;;20.40
16956;BMP180;8594;52.052;8.354;2023-08-07T10:18:15;100230.00;;;20.30
16956;BMP180;8594;52.052;8.354;2023-08-07T10:20:42;100233.00;;;19.90
16956;BMP180;8594;52.052;8.354;2023-08-07T10:23:11;100259.00;;;20.00
16956;BMP180;8594;52.052;8.354;2023-08-07T10:25:43;100260.00;;;19.70
16956;BMP180;8594;52.052;8.354;2023-08-07T10:28:16;100254.00;;;19.40
16956;BMP180;8594;52.052;8.354;2023-08-07T10:30:46;100266.00;;;19.80
16956;BMP180;8594;52.052;8.354;2023-08-07T10:33:15;100255.00;;;19.40
16956;BMP180;8594;52.052;8.354;2023-08-07T10:35:46;100256.00;;;19.40
16956;BMP180;8594;52.052;8.354;2023-08-07T10:38:14;100257.00;;;19.70
16956;BMP180;8594;52.052;8.354;2023-08-07T10:41:00;100231.00;;;19.90
16956;BMP180;8594;52.052;8.354;2023-08-07T10:43:28;100248.00;;;19.80
16956;BMP180;8594;52.052;8.354;2023-08-07T10:46:03;100246.00;;;20.40
16956;BMP180;8594;52.052;8.354;2023-08-07T10:48:38;100244.00;;;20.10
16956;BMP180;8594;52.052;8.354;2023-08-07T10:51:06;100253.00;;;21.00
16956;BMP180;8594;52.052;8.354;2023-08-07T10:53:35;100251.00;;;21.00
16956;BMP180;8594;52.052;8.354;2023-08-07T10:56:04;100255.00;;;21.30
16956;BMP180;8594;52.052;8.354;2023-08-07T10:58:34;100260.00;;;20.50
16956;BMP180;8594;52.052;8.354;2023-08-07T11:01:24;100268.00;;;21.30
16956;BMP180;8594;52.052;8.354;2023-08-07T11:03:55;100264.00;;;21.50
16956;BMP180;8594;52.052;8.354;2023-08-07T11:06:24;100303.00;;;20.60
16956;BMP180;8594;52.052;8.354;2023-08-07T11:08:53;100321.00;;;19.70
16956;BMP180;8594;52.052;8.354;2023-08-07T11:11:20;100330.00;;;18.20
16956;BMP180;8594;52.052;8.354;2023-08-07T11:13:47;100318.00;;;18.30
16956;BMP180;8594;52.052;8.354;2023-08-07T11:16:14;100321.00;;;18.70
16956;BMP180;8594;52.052;8.354;2023-08-07T11:18:43;100331.00;;;18.30
16956;BMP180;8594;52.052;8.354;2023-08-07T11:21:11;100325.00;;;18.50
16956;BMP180;8594;52.052;8.354;2023-08-07T11:23:40;100331.00;;;18.00
16956;BMP180;8594;52.052;8.354;2023-08-07T11:26:09;100321.00;;;18.60
16956;BMP180;8594;52.052;8.354;2023-08-07T11:28:36;100321.00;;;19.00
16956;BMP180;8594;52.052;8.354;2023-08-07T11:31:03;100313.00;;;19.30
16956;BMP180;8594;52.052;8.354;2023-08-07T11:33:30;100320.00;;;19.70
16956;BMP180;8594;52.052;8.354;2023-08-07T11:36:00;100317.00;;;19.60
16956;BMP180;8594;52.052;8.354;2023-08-07T11:38:32;100314.00;;;20.10
16956;BMP180;8594;52.052;8.354;2023-08-07T11:41:00;100304.00;;;19.50
16956;BMP180;8594;52.052;8.354;2023-08-07T11:43:29;100305.00;;;20.10
16956;BMP180;8594;52.052;8.354;2023-08-07T11:45:58;100303.00;;;20.00
16956;BMP180;8594;52.052;8.354;2023-08-07T11:48:26;100306.00;;;19.70
16956;BMP180;8594;52.052;8.354;2023-08-07T11:50:55;100302.00;;;19.90
16956;BMP180;8594;52.052;8.354;2023-08-07T11:53:26;100305.00;;;20.30
16956;BMP180;8594;52.052;8.354;2023-08-07T11:55:56;100300.00;;;20.40
16956;BMP180;8594;52.052;8.354;2023-08-07T11:58:26;100304.00;;;20.90
16956;BMP180;8594;52.052;8.354;2023-08-07T12:00:54;100314.00;;;20.70
16956;BMP180;8594;52.052;8.354;2023-08-07T12:03:26;100306.00;;;20.60
16956;BMP180;8594;52.052;8.354;2023-08-07T12:05:55;100306.00;;;21.10
16956;BMP180;8594;52.052;8.354;2023-08-07T12:08:24;100291.00;;;20.90
16956;BMP180;8594;52.052;8.354;2023-08-07T12:10:53;100298.00;;;21.90
16956;BMP180;8594;52.052;8.354;2023-08-07T12:13:24;100299.00;;;22.10
16956;BMP180;8594;52.052;8.354;2023-08-07T12:15:53;100307.00;;;22.00
16956;BMP180;8594;52.052;8.354;2023-08-07T12:18:21;100305.00;;;21.60
16956;BMP180;8594;52.052;8.354;2023-08-07T12:20:49;100309.00;;;21.40
16956;BMP180;8594;52.052;8.354;2023-08-07T12:23:20;100309.00;;;21.00
16956;BMP180;8594;52.052;8.354;2023-08-07T12:25:49;100336.00;;;20.60
16956;BMP180;8594;52.052;8.354;2023-08-07T12:28:16;100320.00;;;20.70
16956;BMP180;8594;52.052;8.354;2023-08-07T12:30:46;100335.00;;;20.60
16956;BMP180;8594;52.052;8.354;2023-08-07T12:33:14;100342.00;;;20.40
16956;BMP180;8594;52.052;8.354;2023-08-07T12:35:41;100355.00;;;20.20
16956;BMP180;8594;52.052;8.354;2023-08-07T12:38:08;100338.00;;;20.70
16956;BMP180;8594;52.052;8.354;2023-08-07T12:40:36;100342.00;;;20.90
16956;BMP180;8594;52.052;8.354;2023-08-07T12:43:05;100332.00;;;21.10
16956;BMP180;8594;52.052;8.354;2023-08-07T12:45:32;100343.00;;;22.00
16956;BMP180;8594;52.052;8.354;2023-08-07T12:47:59;100324.00;;;21.60
16956;BMP180;8594;52.052;8.354;2023-08-07T12:50:27;100335.00;;;21.30
16956;BMP180;8594;52.052;8.354;2023-08-07T12:52:54;100341.00;;;21.50
16956;BMP180;8594;52.052;8.354;2023-08-07T12:55:22;100344.00;;;21.40
16956;BMP180;8594;52.052;8.354;2023-08-07T12:57:49;100349.00;;;21.10
16956;BMP180;8594;52.052;8.354;2023-08-07T13:00:17;100353.00;;;21.60
16956;BMP180;8594;52.052;8.354;2023-08-07T13:02:46;100353.00;;;21.60
16956;BMP180;8594;52.052;8.354;2023-08-07T13:05:14;100366.00;;;21.40
16956;BMP180;8594;52.052;8.354;2023-08-07T13:07:43;100374.00;;;21.40
16956;BMP180;8594;52.052;8.354;2023-08-07T13:10:12;100373.00;;;21.20
16956;BMP180;8594;52.052;8.354;2023-08-07T13:12:42;100378.00;;;21.40
16956;BMP180;8594;52.052;8.354;2023-08-07T13:15:13;100379.00;;;21.40
16956;BMP180;8594;52.052;8.354;2023-08-07T13:17:42;100374.00;;;21.60
16956;BMP180;8594;52.052;8.354;2023-08-07T13:20:11;100383.00;;;21.00
16956;BMP180;8594;52.052;8.354;2023-08-07T13:22:41;100414.00;;;21.10
16956;BMP180;8594;52.052;8.354;2023-08-07T13:25:09;100416.00;;;20.10
16956;BMP180;8594;52.052;8.354;2023-08-07T13:27:37;100417.00;;;20.30
16956;BMP180;8594;52.052;8.354;2023-08-07T13:30:06;100416.00;;;20.50
16956;BMP180;8594;52.052;8.354;2023-08-07T13:32:34;100417.00;;;20.50
16956;BMP180;8594;52.052;8.354;2023-08-07T13:35:02;100405.00;;;20.70
16956;BMP180;8594;52.052;8.354;2023-08-07T13:37:29;100409.00;;;20.40
16956;BMP180;8594;52.052;8.354;2023-08-07T13:39:56;100420.00;;;21.20
16956;BMP180;8594;52.052;8.354;2023-08-07T13:42:24;100417.00;;;21.50
16956;BMP180;8594;52.052;8.354;2023-08-07T13:44:51;100413.00;;;21.60
16956;BMP180;8594;52.052;8.354;2023-08-07T13:47:18;100415.00;;;21.90
16956;BMP180;8594;52.052;8.354;2023-08-07T13:49:46;100419.00;;;21.80
16956;BMP180;8594;52.052;8.354;2023-08-07T13:52:14;100425.00;;;21.20
16956;BMP180;8594;52.052;8.354;2023-08-07T13:54:42;100424.00;;;21.20
16956;BMP180;8594;52.052;8.354;2023-08-07T13:57:09;100423.00;;;21.20
16956;BMP180;8594;52.052;8.354;2023-08-07T13:59:36;100419.00;;;21.90
16956;BMP180;8594;52.052;8.354;2023-08-07T14:02:03;100429.00;;;21.40
16956;BMP180;8594;52.052;8.354;2023-08-07T14:04:30;100423.00;;;21.60
16956;BMP180;8594;52.052;8.354;2023-08-07T14:06:58;100426.00;;;21.60
16956;BMP180;8594;52.052;8.354;2023-08-07T14:09:26;100435.00;;;21.20
16956;BMP180;8594;52.052;8.354;2023-08-07T14:11:53;100426.00;;;21.70
16956;BMP180;8594;52.052;8.354;2023-08-07T14:14:21;100441.00;;;21.80
16956;BMP180;8594;52.052;8.354;2023-08-07T14:16:48;100435.00;;;21.80
16956;BMP180;8594;52.052;8.354;2023-08-07T14:19:15;100439.00;;;22.20